Qu Shan Hai — H3JA — position and weather

sailwx.info

Track history (hours):
 
Tides and Currents Weather Stations Pressure Air Temp Water Temp Dewpoint Dewpoint Depression Visibility Wind Speed Wind Dir Waves Ship Positions

Qu Shan Hai

Last reported at 2018-May-23 14:27 UTC. Time now 2018-May-23 14:59 UTC.
Position N 37°39' E 120°18'.

Length 190 m; draft 13 m.

Type: Cargo ship. MMSI: 353693000.

Date/timePositionNaut miles runAvg speedWind from/ knotsBaromVisibWave heightAir tempDewpointWater temp
2018-May-23 14:27N 37°39' E 120°18'0 0.0
2018-May-23 14:00N 37°39' E 120°18'0 0.0
2018-May-23 13:27N 37°39' E 120°18'0 0.0
2018-May-23 13:00N 37°39' E 120°18'0 0.1
2018-May-23 12:30N 37°39' E 120°18'1 2.9
2018-May-23 12:00N 37°39' E 120°17'4 7.8
2018-May-23 11:30N 37°41' E 120°12'5 9.2
2018-May-23 11:00N 37°45' E 120°09'3 5.1
2018-May-23 10:28N 37°46' E 120°07'0 0.3
2018-May-23 10:00N 37°46' E 120°07'0 0.5
2018-May-23 09:30N 37°46' E 120°07'1 1.3
2018-May-23 09:00N 37°47' E 120°08'2 3.8
2018-May-23 08:30N 37°49' E 120°08'3 5.7
2018-May-23 08:00N 37°50' E 120°05'5 9.2
2018-May-23 07:30N 37°52' E 120°00'1 1.4
2018-May-23 06:29N 37°53' E 119°58'0 0.0
2018-May-23 05:59N 37°53' E 119°58'0 0.0
2018-May-23 05:29N 37°53' E 119°58'0 0.0
2018-May-23 04:59N 37°53' E 119°58'0 0.0
2018-May-23 04:29N 37°53' E 119°58'0 0.0
2018-May-23 03:53N 37°53' E 119°58'0 0.0
2018-May-23 03:05N 37°53' E 119°58'0 0.1
2018-May-23 02:59N 37°53' E 119°58'0 0.1
2018-May-23 02:26N 37°53' E 119°58'0 0.0
2018-May-23 01:59N 37°53' E 119°58'0 0.0
2018-May-23 01:29N 37°53' E 119°58'0 0.0
2018-May-23 00:59N 37°53' E 119°58'0 0.1
2018-May-23 00:23N 37°53' E 119°58'0 0.0
2018-May-22 23:53N 37°53' E 119°58'0 0.0
2018-May-22 23:29N 37°53' E 119°58'0 0.1
2018-May-22 22:59N 37°53' E 119°58'0 0.0
2018-May-22 22:29N 37°53' E 119°58'0 0.0
2018-May-22 21:59N 37°53' E 119°58'0 0.4
2018-May-22 21:26N 37°53' E 119°58'0 0.2
2018-May-22 21:00N 37°53' E 119°58'1 2.4
2018-May-22 20:30N 37°53' E 119°60'5 9.5
2018-May-22 19:59N 37°53' E 120°06'711.6
2018-May-22 19:26N 37°56' E 120°13'511.7
2018-May-22 19:00N 37°59' E 120°18'611.6
2018-May-22 18:30N 38°03' E 120°24'510.1
2018-May-22 18:00N 38°04' E 120°30'510.9
2018-May-22 17:30N 38°03' E 120°37'610.7
2018-May-22 16:59N 38°02' E 120°44'510.5
2018-May-22 16:30N 38°00' E 120°50'510.8
2018-May-22 16:00N 37°60' E 120°57'611.0
2018-May-22 15:30N 37°58' E 121°04'611.2
2018-May-22 14:58N 37°57' E 121°11'511.5
2018-May-22 14:30N 37°55' E 121°18'611.6
2018-May-22 13:59N 37°55' E 121°25'611.7
2018-May-22 13:28N 37°54' E 121°33'611.8
2018-May-22 13:00N 37°53' E 121°40'611.7
2018-May-22 12:30N 37°53' E 121°47'611.8
2018-May-22 12:00N 37°53' E 121°55'  
2018-May-18 21:18N 22°42' E 119°45'512.8
2018-May-18 20:57N 22°38' E 119°42'1613.0
2018-May-18 19:42N 22°25' E 119°33'1513.2
2018-May-18 18:33N 22°12' E 119°25'112.9
2018-May-18 18:30N 22°11' E 119°24'  
Track history (hours):
 
Tides and Currents Weather Stations Pressure Air Temp Water Temp Dewpoint Dewpoint Depression Visibility Wind Speed Wind Dir Waves Ship Positions

Qu Shan Hai

Last reported at 2018-May-23 14:27 UTC. Time now 2018-May-23 14:59 UTC.
Position N 37°39' E 120°18'.

Length 190 m; draft 13 m.

Type: Cargo ship. MMSI: 353693000.

Date/timePositionNaut miles runAvg speedWind from/ knotsBaromVisibWave heightAir tempDewpointWater temp
2018-May-23 14:27N 37°39' E 120°18'0 0.0
2018-May-23 14:00N 37°39' E 120°18'0 0.0
2018-May-23 13:27N 37°39' E 120°18'0 0.0
2018-May-23 13:00N 37°39' E 120°18'0 0.1
2018-May-23 12:30N 37°39' E 120°18'1 2.9
2018-May-23 12:00N 37°39' E 120°17'4 7.8
2018-May-23 11:30N 37°41' E 120°12'5 9.2
2018-May-23 11:00N 37°45' E 120°09'3 5.1
2018-May-23 10:28N 37°46' E 120°07'0 0.3
2018-May-23 10:00N 37°46' E 120°07'0 0.5
2018-May-23 09:30N 37°46' E 120°07'1 1.3
2018-May-23 09:00N 37°47' E 120°08'2 3.8
2018-May-23 08:30N 37°49' E 120°08'3 5.7
2018-May-23 08:00N 37°50' E 120°05'5 9.2
2018-May-23 07:30N 37°52' E 120°00'1 1.4
2018-May-23 06:29N 37°53' E 119°58'0 0.0
2018-May-23 05:59N 37°53' E 119°58'0 0.0
2018-May-23 05:29N 37°53' E 119°58'0 0.0
2018-May-23 04:59N 37°53' E 119°58'0 0.0
2018-May-23 04:29N 37°53' E 119°58'0 0.0
2018-May-23 03:53N 37°53' E 119°58'0 0.0
2018-May-23 03:05N 37°53' E 119°58'0 0.1
2018-May-23 02:59N 37°53' E 119°58'0 0.1
2018-May-23 02:26N 37°53' E 119°58'0 0.0
2018-May-23 01:59N 37°53' E 119°58'0 0.0
2018-May-23 01:29N 37°53' E 119°58'0 0.0
2018-May-23 00:59N 37°53' E 119°58'0 0.1
2018-May-23 00:23N 37°53' E 119°58'0 0.0
2018-May-22 23:53N 37°53' E 119°58'0 0.0
2018-May-22 23:29N 37°53' E 119°58'0 0.1
2018-May-22 22:59N 37°53' E 119°58'0 0.0
2018-May-22 22:29N 37°53' E 119°58'0 0.0
2018-May-22 21:59N 37°53' E 119°58'0 0.4
2018-May-22 21:26N 37°53' E 119°58'0 0.2
2018-May-22 21:00N 37°53' E 119°58'1 2.4
2018-May-22 20:30N 37°53' E 119°60'5 9.5
2018-May-22 19:59N 37°53' E 120°06'711.6
2018-May-22 19:26N 37°56' E 120°13'511.7
2018-May-22 19:00N 37°59' E 120°18'611.6
2018-May-22 18:30N 38°03' E 120°24'510.1
2018-May-22 18:00N 38°04' E 120°30'510.9
2018-May-22 17:30N 38°03' E 120°37'610.7
2018-May-22 16:59N 38°02' E 120°44'510.5
2018-May-22 16:30N 38°00' E 120°50'510.8
2018-May-22 16:00N 37°60' E 120°57'611.0
2018-May-22 15:30N 37°58' E 121°04'611.2
2018-May-22 14:58N 37°57' E 121°11'511.5
2018-May-22 14:30N 37°55' E 121°18'611.6
2018-May-22 13:59N 37°55' E 121°25'611.7
2018-May-22 13:28N 37°54' E 121°33'611.8
2018-May-22 13:00N 37°53' E 121°40'611.7
2018-May-22 12:30N 37°53' E 121°47'611.8
2018-May-22 12:00N 37°53' E 121°55'  
2018-May-18 21:18N 22°42' E 119°45'512.8
2018-May-18 20:57N 22°38' E 119°42'1613.0
2018-May-18 19:42N 22°25' E 119°33'1513.2
2018-May-18 18:33N 22°12' E 119°25'112.9
2018-May-18 18:30N 22°11' E 119°24'  

Dump ship's entire track history